createdAt,value
2018-01-29T00:00:42.473Z,8.16
2018-01-29T00:01:42.399Z,8.18
2018-01-29T00:02:41.816Z,8.16
2018-01-29T00:03:42.185Z,8.17
2018-01-29T00:04:41.747Z,8.15
2018-01-29T00:05:42.676Z,8.16
2018-01-29T00:06:42.397Z,8.14
2018-01-29T00:07:42.107Z,8.15
2018-01-29T00:08:41.904Z,8.16
2018-01-29T00:09:43.410Z,8.17
2018-01-29T00:10:42.712Z,8.17
2018-01-29T00:11:42.513Z,8.14
2018-01-29T00:12:41.562Z,8.14
2018-01-29T00:13:41.345Z,8.15
2018-01-29T00:14:41.346Z,8.14
2018-01-29T00:15:42.154Z,8.14
2018-01-29T00:16:41.623Z,8.14
2018-01-29T00:17:43.883Z,8.13
2018-01-29T00:18:42.736Z,8.13
2018-01-29T00:19:42.769Z,8.13
2018-01-29T00:20:42.410Z,8.13
2018-01-29T00:21:43.112Z,8.12
2018-01-29T00:22:41.624Z,8.13
2018-01-29T00:23:42.412Z,8.1
2018-01-29T00:24:42.152Z,8.1
2018-01-29T00:25:42.972Z,8.12
2018-01-29T00:26:41.331Z,8.08
2018-01-29T00:27:43.830Z,8.12
2018-01-29T00:28:42.267Z,8.11
2018-01-29T00:29:42.125Z,8.09
2018-01-29T00:30:40.965Z,8.09
2018-01-29T00:31:41.866Z,8.11
2018-01-29T00:32:40.350Z,8.09
2018-01-29T00:33:41.743Z,8.12
2018-01-29T00:34:40.274Z,8.09
2018-01-29T00:35:41.086Z,8.11
2018-01-29T00:36:41.710Z,8.1
2018-01-29T00:37:41.595Z,8.09
2018-01-29T00:38:41.667Z,8.11
2018-01-29T00:39:41.647Z,8.09
2018-01-29T00:40:42.211Z,8.11
2018-01-29T00:41:41.932Z,8.11
2018-01-29T00:42:42.034Z,8.09
2018-01-29T00:43:40.445Z,8.09
2018-01-29T00:44:42.483Z,8.08
2018-01-29T00:45:45.003Z,8.11
2018-01-29T00:46:43.402Z,8.1
2018-01-29T00:47:41.284Z,8.09
2018-01-29T00:48:41.610Z,8.11
2018-01-29T00:49:41.791Z,8.11
2018-01-29T00:50:41.617Z,8.08
2018-01-29T00:51:42.143Z,8.08
2018-01-29T00:52:41.275Z,8.11
2018-01-29T00:53:40.788Z,8.07
2018-01-29T00:54:41.922Z,8.1
2018-01-29T00:55:40.346Z,8.07
2018-01-29T00:56:42.050Z,8.09
2018-01-29T00:57:40.966Z,8.08
2018-01-29T00:58:41.117Z,8.08
2018-01-29T00:59:43.189Z,8.08
2018-01-29T01:00:40.720Z,8.11
2018-01-29T01:01:42.202Z,8.07
2018-01-29T01:02:40.375Z,8.08
2018-01-29T01:03:39.804Z,8.08
2018-01-29T01:04:41.537Z,8.08
2018-01-29T01:05:42.546Z,8.11
2018-01-29T01:06:40.806Z,8.08
2018-01-29T01:07:41.457Z,8.1
2018-01-29T01:08:40.108Z,8.11
2018-01-29T01:09:40.109Z,8.08
2018-01-29T01:10:41.477Z,8.11
2018-01-29T01:11:42.141Z,8.11
2018-01-29T01:12:40.300Z,8.09
2018-01-29T01:13:40.914Z,8.09
2018-01-29T01:14:41.094Z,8.11
2018-01-29T01:15:41.462Z,8.09
2018-01-29T01:16:39.988Z,8.11
2018-01-29T01:17:43.085Z,8.12
2018-01-29T01:18:39.900Z,8.13
2018-01-29T01:19:43.238Z,8.13
2018-01-29T01:20:40.969Z,8.13
2018-01-29T01:21:41.462Z,8.13
2018-01-29T01:22:41.572Z,8.12
2018-01-29T01:23:42.009Z,8.12
2018-01-29T01:24:40.612Z,8.11
2018-01-29T01:25:42.173Z,8.12
2018-01-29T01:26:44.309Z,8.09
2018-01-29T01:27:42.976Z,8.09
2018-01-29T01:28:41.239Z,8.12
2018-01-29T01:29:41.337Z,8.12
2018-01-29T01:30:43.449Z,8.12
2018-01-29T01:31:41.478Z,8.11
2018-01-29T01:32:41.402Z,8.12
2018-01-29T01:33:40.829Z,8.12
2018-01-29T01:34:40.645Z,8.1
2018-01-29T01:35:40.842Z,8.12
2018-01-29T01:36:42.272Z,8.13
2018-01-29T01:37:41.767Z,8.12
2018-01-29T01:38:41.991Z,8.12
2018-01-29T01:39:40.351Z,8.1
2018-01-29T01:40:41.121Z,8.12
2018-01-29T01:41:42.317Z,8.1
2018-01-29T01:42:43.684Z,8.1
2018-01-29T01:43:41.582Z,8.11
2018-01-29T01:44:41.043Z,8.12
2018-01-29T01:45:40.982Z,8.11
2018-01-29T01:46:40.464Z,8.12
2018-01-29T01:47:41.425Z,8.13
2018-01-29T01:48:41.126Z,8.13
2018-01-29T01:49:40.441Z,8.12
2018-01-29T01:50:41.471Z,8.1
2018-01-29T01:51:40.089Z,8.09
2018-01-29T01:52:41.742Z,8.12
2018-01-29T01:53:40.316Z,8.09
2018-01-29T01:54:40.921Z,8.11
2018-01-29T01:55:40.718Z,8.12
2018-01-29T01:56:40.134Z,8.13
2018-01-29T01:57:41.931Z,8.13
2018-01-29T01:58:40.270Z,8.1
2018-01-29T01:59:41.467Z,8.11
2018-01-29T02:00:40.339Z,8.13
2018-01-29T02:01:42.988Z,8.09
2018-01-29T02:02:41.247Z,8.12
2018-01-29T02:03:41.947Z,8.1
2018-01-29T02:04:41.865Z,8.12
2018-01-29T02:05:40.199Z,8.11
2018-01-29T02:06:40.844Z,8.09
2018-01-29T02:07:40.028Z,8.12
2018-01-29T02:08:41.686Z,8.1
2018-01-29T02:09:41.913Z,8.11
2018-01-29T02:10:41.138Z,8.1
2018-01-29T02:11:41.696Z,8.12
2018-01-29T02:12:46.355Z,8.12
2018-01-29T02:13:42.284Z,8.09
2018-01-29T02:14:43.313Z,8.11
2018-01-29T02:15:42.340Z,8.12
2018-01-29T02:16:41.549Z,8.09
2018-01-29T02:17:42.081Z,8.1
2018-01-29T02:18:40.927Z,8.12
2018-01-29T02:19:42.185Z,8.09
2018-01-29T02:20:44.050Z,8.08
2018-01-29T02:21:41.091Z,8.08
2018-01-29T02:22:43.001Z,8.1
2018-01-29T02:23:43.242Z,8.09
2018-01-29T02:24:41.609Z,8.07
2018-01-29T02:25:42.127Z,8.09
2018-01-29T02:26:44.603Z,8.09
2018-01-29T02:27:40.803Z,8.09
2018-01-29T02:28:43.056Z,8.09
2018-01-29T02:29:40.990Z,8.07
2018-01-29T02:30:40.534Z,8.11
2018-01-29T02:31:40.273Z,8.09
2018-01-29T02:32:42.072Z,8.09
2018-01-29T02:33:41.642Z,8.08
2018-01-29T02:34:43.302Z,8.08
2018-01-29T02:35:41.500Z,8.08
2018-01-29T02:36:43.177Z,8.08
2018-01-29T02:37:41.357Z,8.08
2018-01-29T02:38:40.154Z,8.08
2018-01-29T02:39:40.483Z,8.08
2018-01-29T02:40:41.790Z,8.09
2018-01-29T02:41:42.434Z,8.09
2018-01-29T02:42:41.267Z,8.09
2018-01-29T02:43:41.995Z,8.09
2018-01-29T02:44:44.394Z,8.09
2018-01-29T02:45:41.510Z,8.09
2018-01-29T02:46:42.555Z,8.12
2018-01-29T02:47:44.052Z,8.11
2018-01-29T02:48:40.229Z,8.1
2018-01-29T02:49:41.208Z,8.09
2018-01-29T02:50:40.193Z,8.09
2018-01-29T02:51:40.848Z,8.09
2018-01-29T02:52:40.471Z,8.11
2018-01-29T02:53:41.003Z,8.08
2018-01-29T02:54:41.716Z,8.09
2018-01-29T02:55:42.959Z,8.09
2018-01-29T02:56:43.263Z,8.08
2018-01-29T02:57:41.352Z,8.1
2018-01-29T02:58:42.707Z,8.08
2018-01-29T02:59:42.391Z,8.08
2018-01-29T03:00:42.546Z,8.07
2018-01-29T03:01:42.405Z,8.07
2018-01-29T03:02:40.924Z,8.08
2018-01-29T03:03:42.073Z,8.07
2018-01-29T03:04:41.859Z,8.06
2018-01-29T03:05:41.773Z,8.07
2018-01-29T03:06:43.304Z,8.07
2018-01-29T03:07:40.314Z,8.06
2018-01-29T03:08:40.055Z,8.06
2018-01-29T03:09:41.968Z,8.04
2018-01-29T03:10:40.429Z,8.07
2018-01-29T03:11:40.852Z,8.07
2018-01-29T03:12:40.981Z,8.07
2018-01-29T03:13:41.224Z,8.03
2018-01-29T03:14:40.813Z,8.04
2018-01-29T03:15:41.383Z,8.07
2018-01-29T03:16:41.400Z,8.03
2018-01-29T03:17:41.002Z,8.05
2018-01-29T03:18:41.166Z,8.04
2018-01-29T03:19:40.293Z,8.04
2018-01-29T03:20:40.362Z,8.05
2018-01-29T03:21:40.447Z,8.05
2018-01-29T03:22:42.187Z,8.05
2018-01-29T03:23:41.601Z,8.04
2018-01-29T03:24:41.014Z,8.06
2018-01-29T03:25:40.880Z,8.03
2018-01-29T03:26:42.165Z,8.04
2018-01-29T03:27:40.321Z,8.02
2018-01-29T03:28:41.249Z,8.04
2018-01-29T03:29:41.744Z,8.02
2018-01-29T03:30:41.723Z,8.03
2018-01-29T03:31:40.916Z,8.04
2018-01-29T03:32:42.621Z,8.01
2018-01-29T03:33:40.422Z,8.02
2018-01-29T03:34:40.932Z,8.02
2018-01-29T03:35:41.497Z,8.01
2018-01-29T03:36:41.221Z,8.02
2018-01-29T03:37:41.997Z,8.02
2018-01-29T03:38:41.559Z,8.01
2018-01-29T03:39:42.312Z,8.01
2018-01-29T03:40:41.309Z,8.01
2018-01-29T03:41:40.217Z,7.99
2018-01-29T03:42:43.566Z,8.01
2018-01-29T03:43:41.173Z,7.99
2018-01-29T03:44:40.025Z,7.99
2018-01-29T03:45:41.284Z,8
2018-01-29T03:46:39.995Z,8
2018-01-29T03:47:40.209Z,8
2018-01-29T03:48:40.728Z,7.97
2018-01-29T03:49:40.418Z,7.96
2018-01-29T03:50:41.296Z,7.97
2018-01-29T03:51:41.305Z,7.97
2018-01-29T03:52:41.999Z,7.99
2018-01-29T03:53:42.544Z,7.97
2018-01-29T03:54:40.988Z,7.98
2018-01-29T03:55:40.807Z,7.95
2018-01-29T03:56:41.233Z,7.98
2018-01-29T03:57:41.753Z,7.96
2018-01-29T03:58:43.040Z,7.95
2018-01-29T03:59:41.988Z,7.95
2018-01-29T04:00:40.461Z,7.93
2018-01-29T04:01:41.502Z,7.95
2018-01-29T04:02:42.767Z,7.94
2018-01-29T04:03:40.426Z,7.94
2018-01-29T04:04:40.795Z,7.91
2018-01-29T04:05:41.296Z,7.94
2018-01-29T04:06:41.220Z,7.94
2018-01-29T04:07:41.228Z,7.91
2018-01-29T04:08:42.478Z,7.93
2018-01-29T04:09:41.962Z,7.92
2018-01-29T04:10:41.373Z,7.9
2018-01-29T04:11:41.107Z,7.89
2018-01-29T04:12:41.143Z,7.88
2018-01-29T04:13:41.647Z,7.88
2018-01-29T04:14:40.934Z,7.88
2018-01-29T04:15:40.926Z,7.86
2018-01-29T04:16:41.905Z,7.86
2018-01-29T04:17:41.225Z,7.86
2018-01-29T04:18:42.063Z,7.85
2018-01-29T04:19:41.788Z,7.88
2018-01-29T04:20:41.078Z,7.86
2018-01-29T04:21:40.579Z,7.88
2018-01-29T04:22:42.695Z,7.86
2018-01-29T04:23:40.471Z,7.88
2018-01-29T04:24:41.092Z,7.89
2018-01-29T04:25:41.849Z,7.87
2018-01-29T04:26:41.020Z,7.89
2018-01-29T04:27:40.989Z,7.85
2018-01-29T04:28:41.917Z,7.88
2018-01-29T04:29:41.578Z,7.88
2018-01-29T04:30:41.346Z,7.88
2018-01-29T04:31:41.577Z,7.86
2018-01-29T04:32:41.910Z,7.85
2018-01-29T04:33:41.160Z,7.84
2018-01-29T04:34:43.165Z,7.85
2018-01-29T04:35:40.705Z,7.88
2018-01-29T04:36:41.734Z,7.86
2018-01-29T04:37:42.619Z,7.88
2018-01-29T04:38:40.949Z,7.88
2018-01-29T04:39:42.851Z,7.87
2018-01-29T04:40:43.707Z,7.89
2018-01-29T04:41:42.845Z,7.85
2018-01-29T04:42:41.233Z,7.88
2018-01-29T04:43:44.029Z,7.87
2018-01-29T04:44:40.705Z,7.88
2018-01-29T04:45:41.784Z,7.9
2018-01-29T04:46:42.397Z,7.87
2018-01-29T04:47:44.108Z,7.9
2018-01-29T04:48:40.990Z,7.92
2018-01-29T04:49:40.482Z,7.92
2018-01-29T04:50:42.600Z,7.9
2018-01-29T04:51:41.850Z,7.89
2018-01-29T04:52:40.292Z,7.89
2018-01-29T04:53:42.182Z,7.9
2018-01-29T04:54:41.535Z,7.89
2018-01-29T04:55:40.968Z,7.9
2018-01-29T04:56:41.292Z,7.9
2018-01-29T04:57:43.858Z,7.9
2018-01-29T04:58:43.185Z,7.9
2018-01-29T04:59:42.022Z,7.9
2018-01-29T05:00:41.973Z,7.89
2018-01-29T05:01:40.621Z,7.91
2018-01-29T05:02:41.453Z,7.92
2018-01-29T05:03:41.745Z,7.91
2018-01-29T05:04:41.204Z,7.93
2018-01-29T05:05:41.822Z,7.94
2018-01-29T05:06:45.398Z,7.91
2018-01-29T05:07:44.009Z,7.91
2018-01-29T05:08:41.018Z,7.93
2018-01-29T05:09:40.609Z,7.94
2018-01-29T05:10:42.220Z,7.91
2018-01-29T05:11:41.047Z,7.94
2018-01-29T05:15:41.859Z,7.94
2018-01-29T05:16:41.355Z,7.95
2018-01-29T05:17:41.232Z,7.92
2018-01-29T05:18:40.990Z,7.95
2018-01-29T05:19:43.970Z,7.94
2018-01-29T05:20:42.253Z,7.95
2018-01-29T05:21:41.846Z,7.96
2018-01-29T05:22:40.958Z,7.95
2018-01-29T05:23:42.054Z,7.98
2018-01-29T05:24:41.982Z,7.96
2018-01-29T05:25:43.296Z,7.96
2018-01-29T05:26:42.449Z,7.96
2018-01-29T05:27:40.929Z,7.99
2018-01-29T05:28:40.994Z,7.97
2018-01-29T05:29:41.726Z,7.99
2018-01-29T05:30:40.876Z,7.98
2018-01-29T05:31:42.725Z,7.96
2018-01-29T05:32:41.201Z,7.96
2018-01-29T05:33:42.297Z,7.96
2018-01-29T05:34:41.959Z,7.96
2018-01-29T05:35:40.447Z,7.99
2018-01-29T05:36:43.106Z,7.98
2018-01-29T05:37:41.557Z,7.99
2018-01-29T05:38:41.967Z,7.97
2018-01-29T05:39:42.318Z,7.98
2018-01-29T05:40:41.801Z,7.97
2018-01-29T05:41:42.725Z,7.98
2018-01-29T05:42:41.057Z,8.01
2018-01-29T05:43:41.860Z,8.01
2018-01-29T05:44:41.982Z,8.01
2018-01-29T05:45:40.793Z,8.01
2018-01-29T05:46:41.905Z,8.01
2018-01-29T05:47:43.438Z,8.01
2018-01-29T05:48:40.679Z,8.01
2018-01-29T05:49:43.045Z,8
2018-01-29T05:50:41.539Z,8
2018-01-29T05:51:41.534Z,8.01
2018-01-29T05:52:41.557Z,8.01
2018-01-29T05:53:40.476Z,8.02
2018-01-29T05:54:42.998Z,8.01
2018-01-29T05:55:40.581Z,8.01
2018-01-29T05:56:42.579Z,8.01
2018-01-29T05:57:42.312Z,8.03
2018-01-29T05:58:42.267Z,8.02
2018-01-29T06:02:01.328Z,8.02
2018-01-29T06:02:42.755Z,8.02
2018-01-29T06:03:41.043Z,8.02
2018-01-29T06:04:41.307Z,8.03
2018-01-29T06:05:40.972Z,8.02
2018-01-29T06:06:41.215Z,8.03
2018-01-29T06:07:42.564Z,8.03
2018-01-29T06:08:41.965Z,8.04
2018-01-29T06:09:42.425Z,8.04
2018-01-29T06:10:43.292Z,8.04
2018-01-29T06:11:44.872Z,8.03
2018-01-29T06:12:41.354Z,8.04
2018-01-29T06:13:42.010Z,8.06
2018-01-29T06:14:43.462Z,8.04
2018-01-29T06:15:40.876Z,8.08
2018-01-29T06:16:45.707Z,8.07
2018-01-29T06:17:41.423Z,8.07
2018-01-29T06:18:44.226Z,8.07
2018-01-29T06:19:41.196Z,8.07
2018-01-29T06:20:43.616Z,8.08
2018-01-29T06:21:42.427Z,8.07
2018-01-29T06:22:42.261Z,8.08
2018-01-29T06:23:41.655Z,8.07
2018-01-29T06:24:42.236Z,8.07
2018-01-29T06:25:42.416Z,8.08
2018-01-29T06:26:43.454Z,8.07
2018-01-29T06:27:41.218Z,8.07
2018-01-29T06:28:43.035Z,8.08
2018-01-29T06:29:41.160Z,8.07
2018-01-29T06:30:41.003Z,8.06
2018-01-29T06:31:42.819Z,8.07
2018-01-29T06:32:44.643Z,8.07
2018-01-29T06:33:41.825Z,8.07
2018-01-29T06:34:40.007Z,8.07
2018-01-29T06:35:41.328Z,8.08
2018-01-29T06:36:40.005Z,8.08
2018-01-29T06:37:40.159Z,8.07
2018-01-29T06:38:40.405Z,8.07
2018-01-29T06:39:40.055Z,8.08
2018-01-29T06:40:40.017Z,8.07
2018-01-29T06:41:39.921Z,8.05
2018-01-29T06:42:40.220Z,8.07
2018-01-29T06:43:40.213Z,8.07
2018-01-29T06:44:39.933Z,8.07
2018-01-29T06:45:39.964Z,8.06
2018-01-29T06:46:39.947Z,8.06
2018-01-29T06:47:40.116Z,8.06
2018-01-29T06:48:39.940Z,8.06
2018-01-29T06:49:39.967Z,8.06
2018-01-29T06:50:40.078Z,8.05
2018-01-29T06:51:40.183Z,8.06
2018-01-29T06:52:40.189Z,8.06
2018-01-29T06:53:40.271Z,8.06
2018-01-29T06:54:40.747Z,8.06
2018-01-29T06:55:40.206Z,8.07
2018-01-29T06:56:40.227Z,8.07
2018-01-29T06:57:40.167Z,8.07
2018-01-29T06:58:40.413Z,8.07
2018-01-29T06:59:40.166Z,8.05
2018-01-29T07:00:40.235Z,8.07
2018-01-29T07:01:40.198Z,8.07
2018-01-29T07:02:40.191Z,8.07
2018-01-29T07:03:40.623Z,8.08
2018-01-29T07:04:40.303Z,8.08
2018-01-29T07:05:40.264Z,8.07
2018-01-29T07:06:40.468Z,8.08
2018-01-29T07:07:40.606Z,8.09
2018-01-29T07:08:40.482Z,8.07
2018-01-29T07:09:40.355Z,8.07
2018-01-29T07:10:40.207Z,8.08
2018-01-29T07:11:40.401Z,8.08
2018-01-29T07:12:40.404Z,8.09
2018-01-29T07:13:40.410Z,8.08
2018-01-29T07:14:40.254Z,8.08
2018-01-29T07:15:40.209Z,8.1
2018-01-29T07:16:40.309Z,8.09
2018-01-29T07:17:40.438Z,8.09
2018-01-29T07:18:40.454Z,8.09
2018-01-29T07:19:40.440Z,8.12
2018-01-29T07:20:40.522Z,8.1
2018-01-29T07:21:40.353Z,8.12
2018-01-29T07:22:40.791Z,8.1
2018-01-29T07:23:40.916Z,8.12
2018-01-29T07:24:40.886Z,8.11
2018-01-29T07:25:40.789Z,8.13
2018-01-29T07:26:40.937Z,8.14
2018-01-29T07:27:40.350Z,8.13
2018-01-29T07:28:40.351Z,8.15
2018-01-29T07:29:40.148Z,8.14
2018-01-29T07:30:40.483Z,8.15
2018-01-29T07:31:40.380Z,8.15
2018-01-29T07:32:40.246Z,8.15
2018-01-29T07:33:40.701Z,8.14
2018-01-29T07:34:40.504Z,8.15
2018-01-29T07:35:40.434Z,8.15
2018-01-29T07:36:40.678Z,8.15
2018-01-29T07:37:40.532Z,8.17
2018-01-29T07:38:40.418Z,8.15
2018-01-29T07:39:40.632Z,8.15
2018-01-29T07:40:40.622Z,8.15
2018-01-29T07:41:40.212Z,8.15
2018-01-29T07:42:40.843Z,8.14
2018-01-29T07:43:40.606Z,8.14
2018-01-29T07:44:40.767Z,8.16
2018-01-29T07:45:40.766Z,8.15
2018-01-29T07:46:40.733Z,8.15
2018-01-29T07:47:40.594Z,8.14
2018-01-29T07:48:40.880Z,8.17
2018-01-29T07:49:40.818Z,8.15
2018-01-29T07:50:40.904Z,8.15
2018-01-29T07:51:40.936Z,8.17
2018-01-29T07:52:40.917Z,8.15
2018-01-29T07:53:40.973Z,8.15
2018-01-29T07:54:40.830Z,8.16
2018-01-29T07:55:40.952Z,8.18
2018-01-29T07:56:40.843Z,8.16
2018-01-29T07:57:40.759Z,8.16
2018-01-29T07:58:40.749Z,8.15
2018-01-29T07:59:40.667Z,8.16
2018-01-29T08:00:40.683Z,8.15
2018-01-29T08:01:40.763Z,8.15
2018-01-29T08:02:40.666Z,8.15
2018-01-29T08:03:40.848Z,8.15
2018-01-29T08:04:40.771Z,8.15
2018-01-29T08:05:40.828Z,8.14
2018-01-29T08:06:40.733Z,8.16
2018-01-29T08:07:40.845Z,8.18
2018-01-29T08:08:40.707Z,8.15
2018-01-29T08:09:40.889Z,8.15
2018-01-29T08:10:41.000Z,8.15
2018-01-29T08:11:41.125Z,8.16
2018-01-29T08:12:40.770Z,8.15
2018-01-29T08:13:40.728Z,8.17
2018-01-29T08:14:40.720Z,8.15
2018-01-29T08:15:40.816Z,8.16
2018-01-29T08:16:40.723Z,8.17
2018-01-29T08:17:40.681Z,8.16
2018-01-29T08:18:40.762Z,8.17
2018-01-29T08:19:40.637Z,8.19
2018-01-29T08:20:40.731Z,8.18
2018-01-29T08:21:40.769Z,8.18
2018-01-29T08:22:40.853Z,8.16
2018-01-29T08:23:40.808Z,8.18
2018-01-29T08:24:40.656Z,8.16
2018-01-29T08:25:40.730Z,8.19
2018-01-29T08:26:40.713Z,8.17
2018-01-29T08:27:40.873Z,8.19
2018-01-29T08:28:40.968Z,8.19
2018-01-29T08:29:40.606Z,8.2
2018-01-29T08:30:40.777Z,8.21
2018-01-29T08:31:40.895Z,8.2
2018-01-29T08:32:40.816Z,8.21
2018-01-29T08:33:41.032Z,8.21
2018-01-29T08:34:40.804Z,8.21
2018-01-29T08:35:40.828Z,8.21
2018-01-29T08:36:41.038Z,8.23
2018-01-29T08:37:40.752Z,8.22
2018-01-29T08:38:40.814Z,8.22
2018-01-29T08:39:40.728Z,8.22
2018-01-29T08:40:40.830Z,8.22
2018-01-29T08:41:40.869Z,8.24
2018-01-29T08:42:40.740Z,8.25
2018-01-29T08:43:41.051Z,8.25
2018-01-29T08:44:40.753Z,8.23
2018-01-29T08:45:40.879Z,8.23
2018-01-29T08:46:40.744Z,8.24
2018-01-29T08:47:40.777Z,8.24
2018-01-29T08:48:40.967Z,8.25
2018-01-29T08:49:40.768Z,8.25
2018-01-29T08:50:40.842Z,8.25
2018-01-29T08:51:40.720Z,8.24
2018-01-29T08:52:41.321Z,8.26
2018-01-29T08:53:40.923Z,8.25
2018-01-29T08:54:40.930Z,8.26
2018-01-29T08:55:40.888Z,8.26
2018-01-29T08:56:40.821Z,8.26
2018-01-29T08:57:40.944Z,8.26
2018-01-29T08:58:41.082Z,8.24
2018-01-29T08:59:40.944Z,8.24
2018-01-29T09:00:41.839Z,8.26
2018-01-29T09:01:40.726Z,8.26
2018-01-29T09:02:40.790Z,8.26
2018-01-29T09:03:40.900Z,8.26
2018-01-29T09:04:40.803Z,8.27
2018-01-29T09:05:41.265Z,8.27
2018-01-29T09:06:41.169Z,8.27
2018-01-29T09:07:41.244Z,8.27
2018-01-29T09:08:40.714Z,8.26
2018-01-29T09:09:40.826Z,8.27
2018-01-29T09:10:41.314Z,8.28
2018-01-29T09:11:40.968Z,8.29
2018-01-29T09:12:41.024Z,8.29
2018-01-29T09:13:40.869Z,8.28
2018-01-29T09:14:40.888Z,8.31
2018-01-29T09:15:40.871Z,8.31
2018-01-29T09:16:41.012Z,8.29
2018-01-29T09:17:40.992Z,8.32
2018-01-29T09:18:42.051Z,8.31
2018-01-29T09:19:40.783Z,8.32
2018-01-29T09:20:40.770Z,8.33
2018-01-29T09:21:40.962Z,8.32
2018-01-29T09:22:40.992Z,8.33
2018-01-29T09:23:40.859Z,8.33
2018-01-29T09:24:40.901Z,8.35
2018-01-29T09:25:40.932Z,8.34
2018-01-29T09:26:40.720Z,8.34
2018-01-29T09:27:41.024Z,8.34
2018-01-29T09:28:40.942Z,8.34
2018-01-29T09:29:40.979Z,8.34
2018-01-29T09:30:40.879Z,8.34
2018-01-29T09:31:41.004Z,8.37
2018-01-29T09:32:40.996Z,8.36
2018-01-29T09:33:41.114Z,8.37
2018-01-29T09:34:40.925Z,8.38
2018-01-29T09:35:40.980Z,8.39
2018-01-29T09:36:40.959Z,8.39
2018-01-29T09:37:41.133Z,8.39
2018-01-29T09:38:41.651Z,8.4
2018-01-29T09:39:41.846Z,8.39
2018-01-29T09:40:41.961Z,8.42
2018-01-29T09:41:41.448Z,8.43
2018-01-29T09:42:41.699Z,8.41
2018-01-29T09:43:41.196Z,8.43
2018-01-29T09:44:41.618Z,8.43
2018-01-29T09:45:41.979Z,8.44
2018-01-29T09:46:40.988Z,8.45
2018-01-29T09:47:40.752Z,8.45
2018-01-29T09:48:40.902Z,8.47
2018-01-29T09:49:41.200Z,8.46
2018-01-29T09:50:40.893Z,8.48
2018-01-29T09:51:41.424Z,8.49
2018-01-29T09:52:41.017Z,8.5
2018-01-29T09:53:41.386Z,8.51
2018-01-29T09:54:41.137Z,8.51
2018-01-29T09:55:41.184Z,8.52
2018-01-29T09:56:41.378Z,8.54
2018-01-29T09:57:41.381Z,8.54
2018-01-29T09:58:41.804Z,8.56
2018-01-29T09:59:40.908Z,8.54
2018-01-29T10:00:41.113Z,8.57
2018-01-29T10:01:41.414Z,8.56
2018-01-29T10:02:40.923Z,8.57
2018-01-29T10:03:41.121Z,8.57
2018-01-29T10:04:40.885Z,8.57
2018-01-29T10:05:40.828Z,8.59
2018-01-29T10:06:40.919Z,8.58
2018-01-29T10:07:40.865Z,8.59
2018-01-29T10:08:40.710Z,8.59
2018-01-29T10:09:40.518Z,8.59
2018-01-29T10:10:40.772Z,8.58
2018-01-29T10:11:40.447Z,8.59
2018-01-29T10:12:40.684Z,8.6
2018-01-29T10:13:40.631Z,8.59
2018-01-29T10:14:40.515Z,8.59
2018-01-29T10:15:40.637Z,8.6
2018-01-29T10:16:40.735Z,8.61
2018-01-29T10:17:40.846Z,8.61
2018-01-29T10:18:40.885Z,8.59
2018-01-29T10:19:40.713Z,8.58
2018-01-29T10:20:41.041Z,8.59
2018-01-29T10:21:40.851Z,8.59
2018-01-29T10:22:40.913Z,8.58
2018-01-29T10:23:40.892Z,8.6
2018-01-29T10:24:40.943Z,8.58
2018-01-29T10:25:40.858Z,8.58
2018-01-29T10:26:40.849Z,8.6
2018-01-29T10:27:40.956Z,8.58
2018-01-29T10:28:40.675Z,8.61
2018-01-29T10:29:40.737Z,8.62
2018-01-29T10:30:40.524Z,8.6
2018-01-29T10:31:40.513Z,8.6
2018-01-29T10:32:40.914Z,8.62
2018-01-29T10:33:40.810Z,8.62
2018-01-29T10:34:40.777Z,8.62
2018-01-29T10:35:40.974Z,8.62
2018-01-29T10:36:40.555Z,8.63
2018-01-29T10:37:40.656Z,8.63
2018-01-29T10:38:40.708Z,8.65
2018-01-29T10:39:40.922Z,8.64
2018-01-29T10:40:40.643Z,8.65
2018-01-29T10:41:40.678Z,8.65
2018-01-29T10:42:40.993Z,8.65
2018-01-29T10:43:40.911Z,8.66
2018-01-29T10:44:40.838Z,8.68
2018-01-29T10:45:40.845Z,8.69
2018-01-29T10:46:40.966Z,8.68
2018-01-29T10:47:40.974Z,8.68
2018-01-29T10:48:40.756Z,8.7
2018-01-29T10:49:41.187Z,8.7
2018-01-29T10:50:40.896Z,8.71
2018-01-29T10:51:40.835Z,8.74
2018-01-29T10:52:40.609Z,8.72
2018-01-29T10:53:41.002Z,8.75
2018-01-29T10:54:40.825Z,8.74
2018-01-29T10:55:40.891Z,8.72
2018-01-29T10:56:40.666Z,8.75
2018-01-29T11:00:41.270Z,8.76
2018-01-29T11:01:40.878Z,8.76
2018-01-29T11:02:40.930Z,8.77
2018-01-29T11:03:41.315Z,8.77
2018-01-29T11:04:41.641Z,8.8
2018-01-29T11:05:41.627Z,8.8
2018-01-29T11:06:40.988Z,8.8
2018-01-29T11:07:41.071Z,8.81
2018-01-29T11:08:40.900Z,8.79
2018-01-29T11:09:41.289Z,8.82
2018-01-29T11:10:41.307Z,8.83
2018-01-29T11:11:41.081Z,8.8
2018-01-29T11:12:40.775Z,8.85
2018-01-29T11:13:41.051Z,8.81
2018-01-29T11:14:41.591Z,8.85
2018-01-29T11:15:41.112Z,8.83
2018-01-29T11:16:41.222Z,8.86
2018-01-29T11:17:41.069Z,8.84
2018-01-29T11:18:41.033Z,8.85
2018-01-29T11:19:41.128Z,8.87
2018-01-29T11:20:40.960Z,8.88
2018-01-29T11:21:41.106Z,8.88
2018-01-29T11:22:40.871Z,8.86
2018-01-29T11:23:40.989Z,8.88
2018-01-29T11:24:41.054Z,8.89
2018-01-29T11:25:40.918Z,8.89
2018-01-29T11:26:41.040Z,8.9
2018-01-29T11:27:41.230Z,8.89
2018-01-29T11:28:40.914Z,8.92
2018-01-29T11:29:41.163Z,8.91
2018-01-29T11:30:40.913Z,8.93
2018-01-29T11:31:41.150Z,8.91
2018-01-29T11:32:40.976Z,8.93
2018-01-29T11:33:41.371Z,8.94
2018-01-29T11:34:41.327Z,8.95
2018-01-29T11:35:40.942Z,8.94
2018-01-29T11:36:41.016Z,8.94
2018-01-29T11:37:40.910Z,8.95
2018-01-29T11:38:41.054Z,8.95
2018-01-29T11:39:41.063Z,8.95
2018-01-29T11:40:40.816Z,8.96
2018-01-29T11:41:40.834Z,8.95
2018-01-29T11:42:41.124Z,8.96
2018-01-29T11:43:41.264Z,8.96
2018-01-29T11:44:41.153Z,8.97
2018-01-29T11:45:41.083Z,8.97
2018-01-29T11:46:41.163Z,8.98
2018-01-29T11:47:41.257Z,8.98
2018-01-29T11:48:41.346Z,8.97
2018-01-29T11:49:41.321Z,8.99
2018-01-29T11:50:40.979Z,8.97
2018-01-29T11:51:41.153Z,8.99
2018-01-29T11:52:41.176Z,8.97
2018-01-29T11:53:41.131Z,9
2018-01-29T11:54:41.271Z,9
2018-01-29T11:55:40.868Z,9
2018-01-29T11:56:40.952Z,8.99
2018-01-29T11:57:40.799Z,8.99
2018-01-29T11:58:41.214Z,8.98
2018-01-29T12:00:40.779Z,9
2018-01-29T12:01:40.825Z,8.99
2018-01-29T12:02:41.156Z,8.97
2018-01-29T12:03:41.823Z,9
2018-01-29T12:04:40.204Z,9
2018-01-29T12:05:40.305Z,8.98
2018-01-29T12:06:40.844Z,8.98
2018-01-29T12:07:40.105Z,9
2018-01-29T12:08:40.330Z,9
2018-01-29T12:09:40.310Z,9.01
2018-01-29T12:10:40.402Z,9
2018-01-29T12:11:40.246Z,9.01
2018-01-29T12:12:40.603Z,9.01
2018-01-29T12:13:40.155Z,9.01
2018-01-29T12:14:40.253Z,9.01
2018-01-29T12:15:40.502Z,9.01
2018-01-29T12:16:40.121Z,9.01
2018-01-29T12:17:40.602Z,9.02
2018-01-29T12:18:40.532Z,9.02
2018-01-29T12:19:40.306Z,9.01
2018-01-29T12:20:40.360Z,9.01
2018-01-29T12:21:40.406Z,9.02
2018-01-29T12:22:40.363Z,9.02
2018-01-29T12:23:40.365Z,9.03
2018-01-29T12:24:40.282Z,9.03
2018-01-29T12:25:40.308Z,9.03
2018-01-29T12:26:40.384Z,9.03
2018-01-29T12:27:40.290Z,9.03
2018-01-29T12:28:40.362Z,9.06
2018-01-29T12:29:40.236Z,9.06
2018-01-29T12:30:40.338Z,9.06
2018-01-29T12:31:40.597Z,9.07
2018-01-29T12:32:40.236Z,9.06
2018-01-29T12:33:40.804Z,9.07
2018-01-29T12:34:40.643Z,9.08
2018-01-29T12:35:40.813Z,9.07
2018-01-29T12:36:40.533Z,9.08
2018-01-29T12:37:40.577Z,9.08
2018-01-29T12:38:40.400Z,9.09
2018-01-29T12:39:40.484Z,9.13
2018-01-29T12:40:40.478Z,9.13
2018-01-29T12:41:40.409Z,9.12
2018-01-29T12:42:40.405Z,9.15
2018-01-29T12:43:40.382Z,9.15
2018-01-29T12:44:40.645Z,9.18
2018-01-29T12:45:40.400Z,9.2
2018-01-29T12:46:40.811Z,9.2
2018-01-29T12:47:40.918Z,9.2
2018-01-29T12:48:40.544Z,9.21
2018-01-29T12:49:40.759Z,9.21
2018-01-29T12:50:40.568Z,9.21
2018-01-29T12:51:40.922Z,9.25
2018-01-29T12:52:40.694Z,9.23
2018-01-29T12:53:40.629Z,9.25
2018-01-29T12:54:40.725Z,9.26
2018-01-29T12:55:40.467Z,9.25
2018-01-29T12:56:40.468Z,9.25
2018-01-29T12:57:40.414Z,9.23
2018-01-29T12:58:40.504Z,9.26
2018-01-29T12:59:40.771Z,9.25
2018-01-29T13:00:40.594Z,9.26
2018-01-29T13:01:40.378Z,9.26
2018-01-29T13:02:40.586Z,9.24
2018-01-29T13:03:40.715Z,9.26
2018-01-29T13:04:40.980Z,9.24
2018-01-29T13:05:40.639Z,9.26
2018-01-29T13:06:40.423Z,9.26
2018-01-29T13:07:40.738Z,9.27
2018-01-29T13:08:40.846Z,9.25
2018-01-29T13:09:40.884Z,9.24
2018-01-29T13:10:40.962Z,9.26
2018-01-29T13:11:40.653Z,9.26
2018-01-29T13:12:40.522Z,9.25
2018-01-29T13:13:40.510Z,9.24
2018-01-29T13:14:40.493Z,9.25
2018-01-29T13:15:40.836Z,9.23
2018-01-29T13:16:40.612Z,9.23
2018-01-29T13:17:40.759Z,9.25
2018-01-29T13:18:40.487Z,9.23
2018-01-29T13:19:40.510Z,9.25
2018-01-29T13:20:40.959Z,9.25
2018-01-29T13:21:40.790Z,9.25
2018-01-29T13:22:40.801Z,9.23
2018-01-29T13:23:40.701Z,9.23
2018-01-29T13:24:40.662Z,9.25
2018-01-29T13:25:40.705Z,9.25
2018-01-29T13:26:40.467Z,9.26
2018-01-29T13:27:41.261Z,9.26
2018-01-29T13:28:40.417Z,9.27
2018-01-29T13:29:40.957Z,9.27
2018-01-29T13:30:40.553Z,9.27